Porosity — WDF7776 — position and weather

sailwx.info

Track history (hours):
 
Tides and Currents Weather Stations Pressure Air Temp Water Temp Dewpoint Dewpoint Depression Visibility Wind Speed Wind Dir Waves Ship Positions

Porosity

Owner: Bahlburg, Bill, plano, TX. More information available from US FCC via Universal Licensing System and Coast Guard Vessel Documentation Center.

Last reported at 2015-Aug-25 18:32 UTC. Time now 2015-Sep-02 06:25 UTC.
Position N 48°45' W 123°36'.

Length 19 m.

Type: Pleasure craft. MMSI: 367488010.

Date/timePositionNaut miles runAvg speedWind from/ knotsBaromVisibWave heightAir tempDewpointWater temp
2015-Aug-25 18:32N 48°45' W 123°36'1 0.6
2015-Aug-25 17:28N 48°46' W 123°36'0 0.0
2015-Aug-25 06:13N 48°46' W 123°36'0 0.0
2015-Aug-24 23:31N 48°46' W 123°36'0 0.4
2015-Aug-24 22:32N 48°45' W 123°36'5 4.1
2015-Aug-24 21:25N 48°50' W 123°35'7 8.0
2015-Aug-24 20:31N 48°56' W 123°41'5 1.6
2015-Aug-24 17:09N 48°59' W 123°47'0 0.0
2015-Aug-24 12:27N 48°59' W 123°47'0 0.0
2015-Aug-24 10:09N 48°59' W 123°47'0 0.0
2015-Aug-24 09:27N 48°59' W 123°47'0 0.0
2015-Aug-23 21:21N 48°59' W 123°47'0 0.0
2015-Aug-23 20:15N 48°59' W 123°47'3 4.9
2015-Aug-23 19:32N 48°57' W 123°43'4 0.9
2015-Aug-23 15:24N 48°59' W 123°39'0 0.0
2015-Aug-23 13:27N 48°59' W 123°39'0 0.0
2015-Aug-23 12:15N 48°59' W 123°39'0 0.0
2015-Aug-23 11:27N 48°59' W 123°39'0 0.0
2015-Aug-23 10:30N 48°59' W 123°39'0 0.0
2015-Aug-23 05:06N 48°59' W 123°39'0 0.0
2015-Aug-23 04:09N 48°59' W 123°39'0 0.0
2015-Aug-23 03:33N 48°59' W 123°39'  
2015-Aug-18 19:05N 48°50' W 123°28'11 6.8
2015-Aug-18 17:33N 48°41' W 123°21'2 1.7
2015-Aug-18 16:16N 48°38' W 123°21'0 0.0
2015-Aug-18 15:25N 48°38' W 123°21'0 0.0
2015-Aug-18 14:28N 48°38' W 123°21'0 0.0
2015-Aug-18 13:31N 48°38' W 123°21'0 0.0
2015-Aug-18 12:28N 48°38' W 123°21'0 0.0
2015-Aug-18 11:31N 48°38' W 123°21'0 0.0
2015-Aug-18 08:28N 48°38' W 123°21'0 0.0
2015-Aug-18 07:07N 48°38' W 123°21'0 0.0
2015-Aug-18 06:28N 48°38' W 123°21'0 0.0
2015-Aug-18 03:04N 48°38' W 123°21'0 0.0
2015-Aug-18 02:28N 48°38' W 123°21'0 0.0
2015-Aug-18 01:31N 48°38' W 123°21'0 0.0
2015-Aug-18 00:31N 48°38' W 123°21'0 0.0
2015-Aug-17 23:28N 48°38' W 123°21'0 0.0
2015-Aug-17 22:19N 48°38' W 123°21'0 0.0
2015-Aug-17 20:13N 48°38' W 123°21'0 0.0
2015-Aug-17 17:19N 48°38' W 123°21'0 0.0
2015-Aug-17 16:28N 48°38' W 123°21'0 0.0
2015-Aug-17 15:25N 48°38' W 123°21'0 0.0
2015-Aug-17 14:31N 48°38' W 123°21'0 0.0
2015-Aug-17 13:19N 48°38' W 123°21'0 0.0
2015-Aug-17 12:22N 48°38' W 123°21'0 0.0
2015-Aug-17 11:28N 48°38' W 123°21'0 0.0
2015-Aug-17 10:31N 48°38' W 123°21'0 0.0
2015-Aug-17 08:19N 48°38' W 123°21'0 0.0
2015-Aug-17 07:31N 48°38' W 123°21'0 0.0
2015-Aug-17 06:19N 48°38' W 123°21'0 0.0
2015-Aug-17 05:31N 48°38' W 123°21'0 0.0
2015-Aug-17 04:25N 48°38' W 123°21'0 0.0
2015-Aug-17 03:31N 48°38' W 123°21'0 0.0
2015-Aug-17 02:31N 48°38' W 123°21'0 0.0
2015-Aug-17 01:31N 48°38' W 123°21'0 0.0
2015-Aug-17 00:31N 48°38' W 123°21'0 0.0
2015-Aug-16 23:19N 48°38' W 123°21'0 0.0
2015-Aug-16 22:25N 48°38' W 123°21'9 4.8
2015-Aug-16 20:33N 48°30' W 123°16'8 8.1
2015-Aug-16 19:33N 48°23' W 123°20'36 1.9
2015-Aug-16 00:33N 48°26' W 124°14'9 9.5
2015-Aug-15 23:33N 48°30' W 124°27'  
Track history (hours):
 
Tides and Currents Weather Stations Pressure Air Temp Water Temp Dewpoint Dewpoint Depression Visibility Wind Speed Wind Dir Waves Ship Positions

Porosity

Owner: Bahlburg, Bill, plano, TX. More information available from US FCC via Universal Licensing System and Coast Guard Vessel Documentation Center.

Last reported at 2015-Aug-25 18:32 UTC. Time now 2015-Sep-02 06:25 UTC.
Position N 48°45' W 123°36'.

Length 19 m.

Type: Pleasure craft. MMSI: 367488010.

Date/timePositionNaut miles runAvg speedWind from/ knotsBaromVisibWave heightAir tempDewpointWater temp
2015-Aug-25 18:32N 48°45' W 123°36'1 0.6
2015-Aug-25 17:28N 48°46' W 123°36'0 0.0
2015-Aug-25 06:13N 48°46' W 123°36'0 0.0
2015-Aug-24 23:31N 48°46' W 123°36'0 0.4
2015-Aug-24 22:32N 48°45' W 123°36'5 4.1
2015-Aug-24 21:25N 48°50' W 123°35'7 8.0
2015-Aug-24 20:31N 48°56' W 123°41'5 1.6
2015-Aug-24 17:09N 48°59' W 123°47'0 0.0
2015-Aug-24 12:27N 48°59' W 123°47'0 0.0
2015-Aug-24 10:09N 48°59' W 123°47'0 0.0
2015-Aug-24 09:27N 48°59' W 123°47'0 0.0
2015-Aug-23 21:21N 48°59' W 123°47'0 0.0
2015-Aug-23 20:15N 48°59' W 123°47'3 4.9
2015-Aug-23 19:32N 48°57' W 123°43'4 0.9
2015-Aug-23 15:24N 48°59' W 123°39'0 0.0
2015-Aug-23 13:27N 48°59' W 123°39'0 0.0
2015-Aug-23 12:15N 48°59' W 123°39'0 0.0
2015-Aug-23 11:27N 48°59' W 123°39'0 0.0
2015-Aug-23 10:30N 48°59' W 123°39'0 0.0
2015-Aug-23 05:06N 48°59' W 123°39'0 0.0
2015-Aug-23 04:09N 48°59' W 123°39'0 0.0
2015-Aug-23 03:33N 48°59' W 123°39'  
2015-Aug-18 19:05N 48°50' W 123°28'11 6.8
2015-Aug-18 17:33N 48°41' W 123°21'2 1.7
2015-Aug-18 16:16N 48°38' W 123°21'0 0.0
2015-Aug-18 15:25N 48°38' W 123°21'0 0.0
2015-Aug-18 14:28N 48°38' W 123°21'0 0.0
2015-Aug-18 13:31N 48°38' W 123°21'0 0.0
2015-Aug-18 12:28N 48°38' W 123°21'0 0.0
2015-Aug-18 11:31N 48°38' W 123°21'0 0.0
2015-Aug-18 08:28N 48°38' W 123°21'0 0.0
2015-Aug-18 07:07N 48°38' W 123°21'0 0.0
2015-Aug-18 06:28N 48°38' W 123°21'0 0.0
2015-Aug-18 03:04N 48°38' W 123°21'0 0.0
2015-Aug-18 02:28N 48°38' W 123°21'0 0.0
2015-Aug-18 01:31N 48°38' W 123°21'0 0.0
2015-Aug-18 00:31N 48°38' W 123°21'0 0.0
2015-Aug-17 23:28N 48°38' W 123°21'0 0.0
2015-Aug-17 22:19N 48°38' W 123°21'0 0.0
2015-Aug-17 20:13N 48°38' W 123°21'0 0.0
2015-Aug-17 17:19N 48°38' W 123°21'0 0.0
2015-Aug-17 16:28N 48°38' W 123°21'0 0.0
2015-Aug-17 15:25N 48°38' W 123°21'0 0.0
2015-Aug-17 14:31N 48°38' W 123°21'0 0.0
2015-Aug-17 13:19N 48°38' W 123°21'0 0.0
2015-Aug-17 12:22N 48°38' W 123°21'0 0.0
2015-Aug-17 11:28N 48°38' W 123°21'0 0.0
2015-Aug-17 10:31N 48°38' W 123°21'0 0.0
2015-Aug-17 08:19N 48°38' W 123°21'0 0.0
2015-Aug-17 07:31N 48°38' W 123°21'0 0.0
2015-Aug-17 06:19N 48°38' W 123°21'0 0.0
2015-Aug-17 05:31N 48°38' W 123°21'0 0.0
2015-Aug-17 04:25N 48°38' W 123°21'0 0.0
2015-Aug-17 03:31N 48°38' W 123°21'0 0.0
2015-Aug-17 02:31N 48°38' W 123°21'0 0.0
2015-Aug-17 01:31N 48°38' W 123°21'0 0.0
2015-Aug-17 00:31N 48°38' W 123°21'0 0.0
2015-Aug-16 23:19N 48°38' W 123°21'0 0.0
2015-Aug-16 22:25N 48°38' W 123°21'9 4.8
2015-Aug-16 20:33N 48°30' W 123°16'8 8.1
2015-Aug-16 19:33N 48°23' W 123°20'36 1.9
2015-Aug-16 00:33N 48°26' W 124°14'9 9.5
2015-Aug-15 23:33N 48°30' W 124°27'  

Dump ship's entire track history